Notices For Upcoming Fly-in Events Planned On The VATSIM Network.
By YAN-YU DAI 1368745
#542189 Image
[Date & Time]
2020/1/18 1300Z-1600Z

[Featured Airport]
Hong Kong International Airport (VHHH/HKG)
Kaohsiung International Airport (RCKH/KHH)

[Recommended Route]
VHHH->RCKH
OCEAN/RASSE V3 ENVAR M750 DADON G581 PORCH
RCKH->VHHH
RNAV: PARAS T7 WP521 G581 MAGOG V591 ABBEY
Non-RNAV: PARPA G581 MAGOG V591 ABBEY

[Charts]
Hong Kong
Taiwan

We are looking forward to your coming!
By Tim Wong 1179662
#542449 See you later :D

METAR:
VHHH 181000Z 10010KT 9999 FEW022 19/14 Q1018 NOSIG

TAF:
VHHH 180500Z 1806/1912 30010KT 9999 FEW030 TX21/1806Z TX22/1906Z TN18/1823Z
BECMG 1808/1810 08010KT
BECMG 1903/1905 28010KT
BECMG 1909/1911 11005KT


METAR:
RCKH 181030Z 32005KT 290V020 9999 FEW016 SCT050 20/13 Q1018 NOSIG RMK A3006

TAF:
RCKH 180500Z 1806/1912 35005KT 5000 HZ FEW015 BKN032
TEMPO 1806/1810 29008KT 7000 NSW
TEMPO 1819/1901 3000 HZ
TEMPO 1903/1909 30008KT 7000 NSW